Time;durP1;ratioP1;P1;durP2;ratioP2;P2;SDS_P1;SDS_P2;PMS_P1;PMS_P2;Temp;Humidity;BMP_temperature;BMP_pressure;BME280_temperature;BME280_humidity;BME280_pressure;Samples;Min_cycle;Max_cycle;Signal;HPM_P1;HPM_P2
2023/08/18 00:02:08;;;;;;;29.70;14.50;;;;;;;22.99;79.37;99145.18;137499;1274;22110;-85
2023/08/18 00:05:11;;;;;;;25.10;13.50;;;;;;;23.20;79.63;99140.75;137495;1275;22030;-84
2023/08/18 00:08:14;;;;;;;33.40;13.90;;;;;;;23.22;78.77;99144.91;137482;1274;22713;-84
2023/08/18 00:11:16;;;;;;;18.50;13.80;;;;;;;23.27;78.99;99149.21;137515;1274;21992;-84
2023/08/18 00:14:19;;;;;;;15.40;12.50;;;;;;;23.31;78.54;99149.77;137500;1275;22087;-84
2023/08/18 00:17:21;;;;;;;18.10;12.50;;;;;;;23.18;78.36;99152.52;137516;1274;22097;-83
2023/08/18 00:20:24;;;;;;;22.80;13.60;;;;;;;23.14;78.44;99149.48;137500;1274;22149;-84
2023/08/18 00:23:27;;;;;;;36.80;26.50;;;;;;;23.08;78.77;99151.99;137500;1275;22311;-85
2023/08/18 00:26:29;;;;;;;28.90;20.20;;;;;;;23.10;78.50;99151.02;137516;1274;22147;-84
2023/08/18 00:29:32;;;;;;;23.70;15.00;;;;;;;23.08;78.63;99151.61;137559;1275;22237;-84
2023/08/18 00:32:35;;;;;;;22.20;14.60;;;;;;;23.05;78.58;99149.95;137539;1275;22526;-85
2023/08/18 00:35:40;;;;;;;26.20;17.10;;;;;;;22.95;78.92;99145.34;137507;1274;22055;-84
2023/08/18 00:38:42;;;;;;;26.70;17.00;;;;;;;23.08;79.43;99146.48;137517;1275;22064;-84
2023/08/18 00:41:45;;;;;;;17.90;14.70;;;;;;;23.25;78.84;99148.05;137508;1274;22059;-84
2023/08/18 00:44:47;;;;;;;21.70;14.20;;;;;;;23.19;77.05;99147.15;137543;1274;22074;-84
2023/08/18 00:47:50;;;;;;;22.20;14.90;;;;;;;22.73;78.25;99148.33;137471;1274;22548;-84
2023/08/18 00:50:52;;;;;;;20.70;14.30;;;;;;;22.87;79.55;99152.67;137526;1274;22065;-85
2023/08/18 00:53:56;;;;;;;17.70;13.40;;;;;;;23.09;78.55;99149.65;137455;1275;22518;-85
2023/08/18 00:56:59;;;;;;;;;;;;;;;22.70;76.81;99146.29;137564;1275;22185;-85
2023/08/18 01:00:02;;;;;;;25.20;17.70;;;;;;;22.40;79.92;99141.71;137489;1275;22121;-84
2023/08/18 01:03:06;;;;;;;19.60;14.90;;;;;;;22.66;80.43;99142.52;137490;1274;22251;-85
2023/08/18 01:06:08;;;;;;;17.50;13.50;;;;;;;22.86;79.57;99140.12;137492;1274;22420;-84
2023/08/18 01:09:11;;;;;;;19.40;12.60;;;;;;;22.89;79.16;99133.84;137510;1274;22033;-84
2023/08/18 01:12:13;;;;;;;16.70;12.80;;;;;;;22.93;78.98;99129.09;137493;1275;22266;-85
2023/08/18 01:15:18;;;;;;;23.20;13.50;;;;;;;23.02;78.77;99121.66;137482;1275;22082;-82
2023/08/18 01:18:20;;;;;;;21.50;13.10;;;;;;;23.03;78.29;99119.30;137539;1275;22492;-84
2023/08/18 01:21:23;;;;;;;16.10;12.40;;;;;;;22.88;77.65;99113.25;137463;1275;22608;-84
2023/08/18 01:24:26;;;;;;;16.00;11.90;;;;;;;22.79;78.63;99113.72;137452;1273;22164;-84
2023/08/18 01:27:28;;;;;;;16.30;12.60;;;;;;;22.90;78.78;99112.85;137522;1274;22469;-85
2023/08/18 01:30:31;;;;;;;16.70;11.90;;;;;;;22.91;77.46;99113.14;137483;1275;22632;-85
2023/08/18 01:33:33;;;;;;;20.50;12.60;;;;;;;22.50;77.17;99118.55;137503;1275;22465;-85
2023/08/18 01:36:37;;;;;;;13.60;11.80;;;;;;;22.45;79.70;99121.88;137464;1275;22302;-85
2023/08/18 01:39:40;;;;;;;12.30;11.20;;;;;;;22.48;78.35;99125.34;137499;1271;22207;-86
2023/08/18 01:42:42;;;;;;;18.30;12.00;;;;;;;22.31;78.73;99127.48;137462;1275;22205;-85
2023/08/18 01:45:44;;;;;;;23.60;15.20;;;;;;;22.36;79.93;99126.08;137459;1274;22157;-84
2023/08/18 01:48:47;;;;;;;16.30;14.60;;;;;;;22.55;79.32;99128.87;137489;1274;22116;-84
2023/08/18 01:51:49;;;;;;;15.10;13.20;;;;;;;22.63;78.46;99128.27;137525;1275;22208;-84
2023/08/18 01:54:52;;;;;;;12.40;11.30;;;;;;;22.57;78.57;99133.06;137326;1274;22309;-85
2023/08/18 01:57:54;;;;;;;14.10;11.60;;;;;;;22.49;77.49;99131.34;137539;1275;22728;-85
2023/08/18 02:00:57;;;;;;;72.40;15.80;;;;;;;21.98;76.57;99132.55;137498;1275;22149;-84
2023/08/18 02:03:59;;;;;;;16.50;11.70;;;;;;;21.30;79.12;99134.23;137476;1275;22496;-84
2023/08/18 02:07:04;;;;;;;24.30;12.20;;;;;;;21.42;82.17;99131.27;137521;1275;22056;-85
2023/08/18 02:10:06;;;;;;;12.80;11.60;;;;;;;21.73;82.03;99133.42;137524;1275;22044;-84
2023/08/18 02:13:09;;;;;;;16.80;12.40;;;;;;;21.99;81.43;99131.44;137516;1274;22106;-85
2023/08/18 02:16:11;;;;;;;14.60;11.90;;;;;;;21.98;79.50;99128.46;137545;1275;22363;-86
2023/08/18 02:19:14;;;;;;;13.70;11.70;;;;;;;21.49;78.81;99128.41;137529;1274;22302;-85
2023/08/18 02:22:16;;;;;;;117.30;19.80;;;;;;;21.01;80.17;99134.27;137542;1275;22074;-85
2023/08/18 02:25:21;;;;;;;46.90;14.90;;;;;;;20.70;82.30;99138.20;137522;1274;22116;-85
2023/08/18 02:28:23;;;;;;;38.30;13.80;;;;;;;20.81;84.90;99133.89;137577;1274;22127;-85
2023/08/18 02:31:26;;;;;;;27.40;15.10;;;;;;;21.21;85.68;99132.17;137633;1274;22168;-84
2023/08/18 02:34:28;;;;;;;36.90;17.00;;;;;;;21.57;84.90;99134.39;137723;1275;22212;-85
2023/08/18 02:37:31;;;;;;;19.80;14.30;;;;;;;21.74;83.16;99148.65;137585;1275;22100;-85
2023/08/18 02:40:34;;;;;;;27.40;16.40;;;;;;;21.50;81.40;99154.41;137617;1275;22586;-84
2023/08/18 02:43:36;;;;;;;19.40;15.20;;;;;;;20.95;82.56;99155.13;137530;1274;22118;-86
2023/08/18 02:46:39;;;;;;;20.10;13.60;;;;;;;21.05;85.21;99157.89;137563;1274;22573;-85
2023/08/18 02:49:41;;;;;;;23.00;14.70;;;;;;;21.49;86.07;99155.86;137567;1274;22119;-86
2023/08/18 02:52:44;;;;;;;25.90;16.10;;;;;;;21.98;85.19;99155.75;137499;1274;22032;-86
2023/08/18 02:55:46;;;;;;;31.80;15.60;;;;;;;22.32;84.18;99155.28;137465;1274;22059;-84
2023/08/18 02:58:49;;;;;;;17.30;14.00;;;;;;;22.40;81.34;99155.38;137496;1274;22106;-85
2023/08/18 03:01:52;;;;;;;278.10;31.70;;;;;;;21.88;80.07;99152.14;137484;1275;22036;-84
2023/08/18 03:04:57;;;;;;;85.00;19.00;;;;;;;21.63;82.73;99137.77;137462;1275;22043;-85
2023/08/18 03:08:02;;;;;;;24.00;14.40;;;;;;;21.72;82.37;99142.15;137443;1275;22129;-87
2023/08/18 03:11:05;;;;;;;23.00;19.80;;;;;;;21.31;81.73;99144.29;137427;1275;22163;-87
2023/08/18 03:14:08;;;;;;;28.20;18.60;;;;;;;21.17;84.06;99138.65;137494;1272;22154;-85
2023/08/18 03:17:13;;;;;;;22.80;16.90;;;;;;;21.28;83.39;99147.41;137473;1275;22159;-84
2023/08/18 03:20:16;;;;;;;19.10;16.40;;;;;;;21.22;84.53;99148.27;137408;1275;22276;-84
2023/08/18 03:23:18;;;;;;;21.30;17.80;;;;;;;21.66;84.79;99146.55;137469;1275;22108;-84
2023/08/18 03:26:23;;;;;;;25.70;17.60;;;;;;;22.04;83.36;99139.09;137452;1274;22536;-84
2023/08/18 03:29:25;;;;;;;20.20;17.00;;;;;;;22.26;82.04;99133.84;137431;1275;22142;-83
2023/08/18 03:32:28;;;;;;;20.20;17.00;;;;;;;22.24;80.74;99130.00;137456;1275;22164;-84
2023/08/18 03:35:31;;;;;;;17.50;15.80;;;;;;;21.93;81.03;99132.50;137142;1274;389631;-84
2023/08/18 03:38:34;;;;;;;17.20;15.30;;;;;;;21.83;81.40;99131.91;137449;1274;22210;-84
2023/08/18 03:41:37;;;;;;;30.90;16.20;;;;;;;21.74;82.07;99134.30;137423;1275;22533;-83
2023/08/18 03:44:40;;;;;;;29.20;16.40;;;;;;;21.64;82.03;99129.43;137516;1274;22239;-83
2023/08/18 03:47:42;;;;;;;30.60;16.50;;;;;;;21.45;82.38;99116.85;137472;1274;23065;-84
2023/08/18 03:50:45;;;;;;;37.30;15.60;;;;;;;21.31;83.00;99110.15;137521;1275;22631;-84
2023/08/18 03:53:47;;;;;;;20.20;15.70;;;;;;;21.22;83.50;99108.60;137463;1274;22348;-83
2023/08/18 03:56:52;;;;;;;14.30;13.00;;;;;;;21.19;84.27;99107.44;137439;1274;22055;-83
2023/08/18 03:59:55;;;;;;;15.60;14.00;;;;;;;21.16;84.52;99107.17;137461;1274;22137;-84
2023/08/18 04:02:58;;;;;;;17.40;14.80;;;;;;;21.11;84.43;99112.63;137473;1275;22266;-83
2023/08/18 04:06:01;;;;;;;41.70;16.60;;;;;;;20.95;84.78;99116.05;137460;1274;22202;-81
2023/08/18 04:09:06;;;;;;;40.80;15.30;;;;;;;20.89;85.51;99115.30;137475;1275;22222;-83
2023/08/18 04:12:09;;;;;;;105.00;20.00;;;;;;;20.83;86.02;99112.79;137441;1274;22136;-83
2023/08/18 04:15:12;;;;;;;39.40;14.70;;;;;;;20.98;87.31;99111.16;137420;1275;22133;-83
2023/08/18 04:18:15;;;;;;;21.40;14.60;;;;;;;21.20;86.68;99108.66;137449;1275;22158;-83
2023/08/18 04:21:18;;;;;;;37.90;14.80;;;;;;;21.28;86.31;99098.56;137397;1274;22568;-83
2023/08/18 04:24:21;;;;;;;42.30;15.30;;;;;;;21.36;86.21;99104.89;137392;1274;22180;-83
2023/08/18 04:27:23;;;;;;;17.70;12.90;;;;;;;21.52;86.59;99109.02;137383;1274;21726;-83
2023/08/18 04:30:26;;;;;;;44.20;14.80;;;;;;;21.60;85.97;99112.89;137380;1274;22149;-83
2023/08/18 04:33:28;;;;;;;28.40;14.20;;;;;;;21.62;85.05;99116.54;137311;1275;22165;-83
2023/08/18 04:36:34;;;;;;;41.10;13.00;;;;;;;21.53;84.61;99119.44;137357;1274;22653;-83
2023/08/18 04:39:37;;;;;;;15.90;13.00;;;;;;;21.51;85.41;99112.61;137357;1274;22124;-83
2023/08/18 04:42:40;;;;;;;19.30;13.20;;;;;;;21.42;85.03;99110.03;137359;1274;22125;-82
2023/08/18 04:45:42;;;;;;;18.70;12.70;;;;;;;21.21;85.73;99114.66;137317;1274;22124;-83
2023/08/18 04:48:45;;;;;;;39.20;14.90;;;;;;;21.21;86.90;99116.59;137428;1275;22133;-83
2023/08/18 04:51:48;;;;;;;29.20;15.10;;;;;;;21.34;87.52;99114.15;137419;1274;22575;-83
2023/08/18 04:54:51;;;;;;;27.00;14.50;;;;;;;21.55;87.29;99110.52;137386;1275;22089;-83
2023/08/18 04:57:54;;;;;;;19.00;13.40;;;;;;;21.73;87.05;99110.08;137410;1274;22236;-84
2023/08/18 05:00:56;;;;;;;33.60;20.30;;;;;;;21.85;86.21;99117.31;137437;1273;22211;-84
2023/08/18 05:03:59;;;;;;;25.70;19.10;;;;;;;21.96;85.29;99122.13;137397;1270;22093;-83
2023/08/18 05:07:02;;;;;;;15.30;13.70;;;;;;;22.09;84.76;99120.52;137431;1274;22211;-82
2023/08/18 05:10:04;;;;;;;37.30;15.70;;;;;;;22.14;83.75;99117.36;137457;1274;22581;-84
2023/08/18 05:13:07;;;;;;;28.50;14.70;;;;;;;22.00;83.52;99121.30;137438;1274;22105;-83
2023/08/18 05:16:09;;;;;;;30.30;13.70;;;;;;;21.90;83.88;99121.95;137419;1274;22201;-84
2023/08/18 05:19:12;;;;;;;16.90;13.60;;;;;;;21.88;83.94;99129.27;137479;1274;22137;-83
2023/08/18 05:22:14;;;;;;;15.30;13.80;;;;;;;21.90;84.02;99134.70;137431;1275;22165;-83
2023/08/18 05:25:17;;;;;;;21.00;16.20;;;;;;;21.95;84.45;99139.36;137428;1274;22645;-83
2023/08/18 05:28:20;;;;;;;19.20;16.80;;;;;;;22.02;84.71;99141.83;137429;1274;22080;-83
2023/08/18 05:31:22;;;;;;;33.70;17.10;;;;;;;21.95;84.21;99133.69;137474;1275;22105;-85
2023/08/18 05:34:25;;;;;;;18.30;16.20;;;;;;;22.00;84.34;99135.14;137517;1274;22117;-84
2023/08/18 05:37:27;;;;;;;32.00;16.10;;;;;;;22.16;84.29;99137.14;137481;1275;23040;-82
2023/08/18 05:40:33;;;;;;;22.30;15.80;;;;;;;22.32;83.56;99139.14;137394;1275;22284;-83
2023/08/18 05:43:37;;;;;;;23.80;13.80;;;;;;;22.47;82.82;99132.81;137382;1274;22315;-79
2023/08/18 05:46:39;;;;;;;15.00;13.60;;;;;;;22.63;81.98;99131.09;137366;1274;22221;-83
2023/08/18 05:49:42;;;;;;;14.50;13.10;;;;;;;22.75;81.30;99127.67;137390;1274;22606;-83
2023/08/18 05:52:44;;;;;;;13.90;12.50;;;;;;;23.01;81.19;99130.91;137371;1275;22086;-82
2023/08/18 05:55:47;;;;;;;14.50;13.00;;;;;;;23.27;79.92;99125.41;137355;1274;22162;-82
2023/08/18 05:58:49;;;;;;;17.60;13.90;;;;;;;23.47;79.65;99128.46;137364;1274;22084;-83
2023/08/18 06:01:52;;;;;;;15.60;14.00;;;;;;;23.50;79.26;99119.81;137340;1267;22233;-82
2023/08/18 06:04:55;;;;;;;18.40;13.80;;;;;;;23.49;79.45;99113.61;137282;1270;22674;-83
2023/08/18 06:07:57;;;;;;;64.60;16.10;;;;;;;23.49;79.30;99107.39;137380;1274;22636;-83
2023/08/18 06:10:59;;;;;;;49.80;15.10;;;;;;;23.47;79.40;99107.13;137438;1275;22284;-83
2023/08/18 06:14:04;;;;;;;16.00;12.80;;;;;;;23.54;79.85;99104.05;137394;1274;22196;-84
2023/08/18 06:17:07;;;;;;;13.20;12.10;;;;;;;23.75;79.50;99097.77;137419;1274;22643;-83
2023/08/18 06:20:09;;;;;;;18.60;12.20;;;;;;;24.07;78.88;99096.38;137406;1274;22650;-84
2023/08/18 06:23:12;;;;;;;29.30;12.80;;;;;;;24.35;77.60;99090.70;137434;1275;22126;-82
2023/08/18 06:26:17;;;;;;;12.40;8.40;;;;;;;24.58;76.46;99087.09;137374;1275;22122;-83
2023/08/18 06:29:20;;;;;;;22.20;8.60;;;;;;;24.82;74.87;99085.90;137377;1275;22569;-84
2023/08/18 06:32:22;;;;;;;9.20;7.80;;;;;;;25.01;73.40;99083.16;137417;1275;22136;-84
2023/08/18 06:35:25;;;;;;;10.50;8.20;;;;;;;25.23;72.37;99084.58;137434;1274;22095;-83
2023/08/18 06:38:27;;;;;;;9.70;7.80;;;;;;;25.43;70.52;99083.86;137419;1275;22119;-83
2023/08/18 06:41:30;;;;;;;13.20;7.60;;;;;;;25.62;70.65;99087.09;137435;1274;22252;-84
2023/08/18 06:44:34;;;;;;;12.10;7.70;;;;;;;25.90;70.00;99087.09;137421;1275;22147;-82
2023/08/18 06:47:37;;;;;;;12.40;11.00;;;;;;;26.14;68.33;99093.45;137448;1274;22152;-83
2023/08/18 06:50:39;;;;;;;8.30;7.60;;;;;;;26.29;66.84;99092.73;137461;1274;22142;-83
2023/08/18 06:53:41;;;;;;;8.60;7.40;;;;;;;26.45;66.93;99101.61;137440;1269;22106;-82
2023/08/18 06:56:44;;;;;;;7.70;6.90;;;;;;;26.68;66.43;99108.69;137437;1271;22352;-82
2023/08/18 06:59:47;;;;;;;11.00;7.30;;;;;;;26.97;64.59;99111.19;137430;1275;22161;-83
2023/08/18 07:02:50;;;;;;;9.10;7.40;;;;;;;27.19;63.38;99111.69;137462;1275;22150;-83
2023/08/18 07:05:53;;;;;;;8.10;7.10;;;;;;;27.31;62.23;99109.83;137435;1274;22683;-83
2023/08/18 07:08:55;;;;;;;11.80;8.00;;;;;;;27.21;62.07;99107.30;137465;1274;22248;-83
2023/08/18 07:11:57;;;;;;;50.70;11.50;;;;;;;27.07;61.96;99105.15;137447;1274;22187;-84
2023/08/18 07:15:03;;;;;;;13.10;8.00;;;;;;;26.98;62.15;99105.11;137487;1275;22129;-83
2023/08/18 07:18:05;;;;;;;13.20;7.90;;;;;;;27.06;62.26;99102.54;137420;1275;22833;-83
2023/08/18 07:21:07;;;;;;;9.90;7.80;;;;;;;27.28;61.85;99104.81;137391;1267;22123;-82
2023/08/18 07:24:10;;;;;;;31.50;10.40;;;;;;;27.62;61.44;99098.92;137363;1274;22205;-83
2023/08/18 07:27:12;;;;;;;12.50;8.00;;;;;;;28.01;59.70;99100.23;137364;1274;22147;-82
2023/08/18 07:30:16;;;;;;;16.20;8.50;;;;;;;28.23;59.36;99101.84;137359;1275;22293;-83
2023/08/18 07:33:18;;;;;;;19.20;8.90;;;;;;;28.51;58.72;99103.88;137411;1275;22125;-83
2023/08/18 07:36:21;;;;;;;9.60;8.30;;;;;;;28.75;57.64;99101.93;137367;1275;22101;-84
2023/08/18 07:39:24;;;;;;;8.60;7.60;;;;;;;28.86;57.33;99099.56;137410;1274;22204;-83
2023/08/18 07:42:27;;;;;;;13.30;8.30;;;;;;;28.89;57.01;99100.79;137358;1275;22123;-82
2023/08/18 07:45:30;;;;;;;18.10;14.00;;;;;;;28.88;56.64;99100.70;137347;1274;22664;-82
2023/08/18 07:48:32;;;;;;;13.20;8.50;;;;;;;28.91;56.60;99103.75;137434;1275;22149;-83
2023/08/18 07:51:37;;;;;;;38.80;9.10;;;;;;;28.90;56.17;99111.52;137440;1274;22095;-84
2023/08/18 07:54:41;;;;;;;15.70;7.70;;;;;;;29.02;56.12;99112.56;137427;1263;22203;-82
2023/08/18 07:57:43;;;;;;;8.30;7.50;;;;;;;29.23;55.70;99112.39;137413;1275;22112;-82
2023/08/18 08:00:47;;;;;;;8.00;7.10;;;;;;;29.35;55.22;99108.98;137421;1274;22119;-83
2023/08/18 08:03:50;;;;;;;11.00;8.00;;;;;;;29.36;55.05;99105.36;137403;1275;22138;-81
2023/08/18 08:06:56;;;;;;;10.80;7.10;;;;;;;29.50;54.66;99107.94;137422;1262;22122;-82
2023/08/18 08:10:02;;;;;;;12.30;7.90;;;;;;;29.65;53.68;99102.69;137434;1271;23272;-82
2023/08/18 08:13:04;;;;;;;10.70;7.80;;;;;;;29.72;53.89;99099.59;137387;1274;22202;-82
2023/08/18 08:16:07;;;;;;;11.40;8.10;;;;;;;29.96;53.68;99099.70;137435;1274;22514;-83
2023/08/18 08:19:13;;;;;;;;;;;;;;;30.14;53.27;99098.18;137323;1274;22848;-81
2023/08/18 08:22:16;;;;;;;44.70;9.90;;;;;;;30.26;52.43;99101.36;137421;1274;22115;-81
2023/08/18 08:25:19;;;;;;;;;;;;;;;30.35;52.28;99104.91;137447;1274;22222;-82
2023/08/18 08:28:22;;;;;;;8.70;7.40;;;;;;;30.30;51.17;99100.02;137386;1269;22112;-81
2023/08/18 08:31:25;;;;;;;13.60;7.80;;;;;;;30.25;51.74;99103.05;137385;1274;22572;-81
2023/08/18 08:34:27;;;;;;;65.20;13.60;;;;;;;30.48;51.58;99104.96;137428;1274;22585;-82
2023/08/18 08:37:30;;;;;;;13.40;8.60;;;;;;;30.79;51.40;99113.89;137413;1274;22179;-81
2023/08/18 08:40:32;;;;;;;9.90;7.90;;;;;;;31.05;50.84;99110.00;137463;1271;22133;-82
2023/08/18 08:43:35;;;;;;;10.10;7.30;;;;;;;31.08;49.84;99102.95;137404;1274;22287;-83
2023/08/18 08:46:37;;;;;;;24.80;9.60;;;;;;;30.90;50.23;99097.67;137399;1269;22155;-83
2023/08/18 08:49:40;;;;;;;17.20;8.50;;;;;;;30.74;50.50;99100.20;137458;1274;22576;-82
2023/08/18 08:52:42;;;;;;;15.30;7.70;;;;;;;30.85;50.75;99097.17;137411;1274;22126;-82
2023/08/18 08:55:45;;;;;;;10.10;8.30;;;;;;;31.04;50.06;99099.82;137435;1274;22371;-82
2023/08/18 08:58:47;;;;;;;12.30;8.90;;;;;;;31.16;50.40;99100.08;137427;1274;22331;-83
2023/08/18 09:01:51;;;;;;;8.80;8.00;;;;;;;31.35;49.71;99099.34;137429;1274;22706;-84
2023/08/18 09:04:53;;;;;;;13.30;8.70;;;;;;;31.56;49.64;99095.55;137474;1274;22110;-81
2023/08/18 09:07:56;;;;;;;18.00;9.40;;;;;;;31.76;48.99;99099.05;137513;1275;22260;-81
2023/08/18 09:10:58;;;;;;;14.30;8.70;;;;;;;31.79;48.06;99100.41;137342;1274;22164;-80
2023/08/18 09:14:01;;;;;;;14.70;8.70;;;;;;;31.90;48.36;99097.85;137453;1274;22267;-82
2023/08/18 09:17:03;;;;;;;10.80;8.10;;;;;;;31.91;48.26;99095.04;137518;1274;21970;-80
2023/08/18 09:20:05;;;;;;;378.30;41.40;;;;;;;31.93;48.63;99099.58;137509;1274;22145;-79
2023/08/18 09:23:08;;;;;;;50.70;11.80;;;;;;;32.04;48.20;99101.55;137497;1275;22087;-80
2023/08/18 09:26:10;;;;;;;11.80;8.60;;;;;;;32.20;48.22;99101.30;137468;1274;22140;-81
2023/08/18 09:29:13;;;;;;;20.90;10.00;;;;;;;32.44;47.51;99092.70;137418;1274;22196;-81
2023/08/18 09:32:15;;;;;;;38.80;10.20;;;;;;;32.58;47.46;99092.16;137480;1271;22835;-83
2023/08/18 09:35:19;;;;;;;10.80;8.30;;;;;;;32.56;47.54;99091.59;137429;1274;22576;-81
2023/08/18 09:38:22;;;;;;;21.20;9.00;;;;;;;32.67;47.55;99091.50;137369;1274;22101;-82
2023/08/18 09:41:25;;;;;;;27.40;9.70;;;;;;;32.73;47.43;99089.98;137392;1274;22807;-81
2023/08/18 09:44:28;;;;;;;;;;;;;;;32.89;47.10;99091.48;137424;1275;22264;-81
2023/08/18 09:47:31;;;;;;;13.40;8.40;;;;;;;32.94;46.63;99086.59;137391;1274;22672;-82
2023/08/18 09:50:33;;;;;;;;;;;;;;;32.83;46.44;99090.45;137406;1275;22692;-81
2023/08/18 09:53:36;;;;;;;16.90;9.30;;;;;;;32.56;47.12;99090.17;137312;1274;22101;-81
2023/08/18 09:56:39;;;;;;;12.40;8.10;;;;;;;32.60;47.30;99085.75;137350;1274;22721;-82
2023/08/18 09:59:41;;;;;;;12.50;8.30;;;;;;;32.61;47.14;99089.42;137345;1275;22113;-83
2023/08/18 10:02:44;;;;;;;13.80;8.90;;;;;;;32.67;47.21;99084.81;137395;1274;22675;-81
2023/08/18 10:05:47;;;;;;;38.60;10.10;;;;;;;32.70;47.04;99080.82;137370;1275;22229;-81
2023/08/18 10:08:49;;;;;;;10.60;8.80;;;;;;;32.86;46.62;99076.41;137375;1275;22109;-79
2023/08/18 10:11:52;;;;;;;11.70;9.30;;;;;;;32.92;46.03;99074.29;137376;1274;22766;-79
2023/08/18 10:14:55;;;;;;;14.00;9.40;;;;;;;32.86;46.67;99073.14;137381;1275;22097;-81
2023/08/18 10:17:58;;;;;;;62.50;14.00;;;;;;;32.96;46.80;99071.90;137267;1274;22391;-80
2023/08/18 10:21:00;;;;;;;16.20;9.30;;;;;;;32.93;46.68;99068.66;137379;1275;22091;-82
2023/08/18 10:24:03;;;;;;;14.20;9.50;;;;;;;33.04;46.21;99064.10;137393;1275;22093;-81
2023/08/18 10:27:10;;;;;;;;;;;;;;;33.01;46.41;99065.39;137448;1275;22215;-82
2023/08/18 10:30:12;;;;;;;26.30;9.70;;;;;;;33.31;46.40;99063.02;137413;1274;22750;-81
2023/08/18 10:33:15;;;;;;;24.70;10.00;;;;;;;33.81;45.80;99057.48;137398;1275;22073;-83
2023/08/18 10:36:18;;;;;;;;;;;;;;;34.10;45.28;99057.16;137445;1275;22298;-82
2023/08/18 10:39:21;;;;;;;;;;;;;;;34.00;45.21;99050.94;137407;1274;22422;-81
2023/08/18 10:42:23;;;;;;;17.70;9.60;;;;;;;33.89;45.28;99050.18;137422;1274;22183;-81
2023/08/18 10:45:26;;;;;;;10.30;9.20;;;;;;;33.82;45.92;99044.02;137425;1274;22524;-82
2023/08/18 10:48:32;;;;;;;91.90;16.40;;;;;;;33.86;45.37;99042.66;137410;1275;22280;-81
2023/08/18 10:51:34;;;;;;;11.20;9.40;;;;;;;33.99;44.84;99035.11;137450;1274;22173;-82
2023/08/18 10:54:37;;;;;;;;;;;;;;;33.93;44.77;99028.89;137436;1275;22324;-83
2023/08/18 10:57:42;;;;;;;11.50;8.60;;;;;;;34.22;45.07;99028.55;137473;1275;22161;-83
2023/08/18 11:00:45;;;;;;;11.60;8.60;;;;;;;34.51;44.16;99035.69;137472;1275;22141;-81
2023/08/18 11:03:47;;;;;;;11.80;8.80;;;;;;;34.61;43.78;99042.27;137432;1275;23018;-83
2023/08/18 11:06:50;;;;;;;;;;;;;;;34.45;43.49;99047.55;137480;1274;22170;-82
2023/08/18 11:09:53;;;;;;;27.00;10.10;;;;;;;34.25;43.98;99042.36;137417;1268;22354;-82
2023/08/18 11:12:56;;;;;;;11.50;9.00;;;;;;;34.26;44.25;99041.55;137471;1275;22258;-83
2023/08/18 11:15:58;;;;;;;23.50;11.00;;;;;;;34.18;44.56;99042.40;137516;1272;22230;-83
2023/08/18 11:19:01;;;;;;;23.50;10.80;;;;;;;34.19;44.67;99041.55;137469;1275;22149;-84
2023/08/18 11:22:04;;;;;;;26.30;10.70;;;;;;;34.12;44.69;99039.85;137473;1275;22137;-81
2023/08/18 11:25:07;;;;;;;21.20;10.40;;;;;;;34.12;44.63;99041.41;137470;1263;22194;-82
2023/08/18 11:28:09;;;;;;;11.20;9.50;;;;;;;34.35;44.21;99039.41;137510;1275;22101;-83
2023/08/18 11:31:12;;;;;;;37.30;12.20;;;;;;;34.46;44.13;99041.55;137470;1274;22148;-82
2023/08/18 11:34:15;;;;;;;;;;;;;;;34.59;44.27;99038.14;137474;1274;22852;-81
2023/08/18 11:37:17;;;;;;;17.70;10.00;;;;;;;34.69;43.77;99035.25;137346;1274;22119;-82
2023/08/18 11:40:20;;;;;;;;;;;;;;;34.57;43.46;99034.27;137465;1274;22360;-81
2023/08/18 11:43:23;;;;;;;12.20;10.00;;;;;;;34.38;43.74;99034.83;137455;1275;22099;-81
2023/08/18 11:46:26;;;;;;;40.80;12.50;;;;;;;34.37;43.78;99033.59;137476;1274;22098;-82
2023/08/18 11:49:31;;;;;;;9.90;9.10;;;;;;;34.62;43.62;99025.73;137334;1275;22111;-82
2023/08/18 11:52:33;;;;;;;16.40;10.40;;;;;;;34.94;43.29;99028.17;137428;1275;22289;-82
2023/08/18 11:55:38;;;;;;;;;;;;;;;35.16;42.57;99024.95;137366;1275;22289;-82
2023/08/18 11:58:40;;;;;;;12.90;8.60;;;;;;;35.31;41.51;99022.36;137426;1274;22179;-82
2023/08/18 12:01:43;;;;;;;;;;;;;;;35.57;40.43;99021.27;137428;1274;22241;-83
2023/08/18 12:04:45;;;;;;;13.30;9.30;;;;;;;35.56;40.46;99013.89;137391;1274;22264;-82
2023/08/18 12:07:48;;;;;;;14.50;9.40;;;;;;;35.61;40.08;99008.21;137395;1275;22091;-83
2023/08/18 12:10:54;;;;;;;13.10;9.30;;;;;;;35.53;40.16;99002.42;137350;1275;22279;-82
2023/08/18 12:13:57;;;;;;;13.20;10.20;;;;;;;35.39;40.29;99004.33;137344;1275;22133;-83
2023/08/18 12:16:59;;;;;;;15.00;10.90;;;;;;;35.23;39.84;99004.11;137367;1272;22124;-84
2023/08/18 12:20:06;;;;;;;17.90;10.00;;;;;;;34.96;40.47;99016.02;137348;1275;22330;-83
2023/08/18 12:23:08;;;;;;;11.20;7.80;;;;;;;34.68;41.22;99027.58;137462;1275;22266;-83
2023/08/18 12:26:11;;;;;;;;;;;;;;;33.84;44.08;99036.88;137432;1274;22348;-82
2023/08/18 12:29:13;;;;;;;12.90;7.50;;;;;;;32.60;47.02;99036.17;137427;1274;22183;-83
2023/08/18 12:32:16;;;;;;;12.40;8.00;;;;;;;31.57;49.49;99041.88;137451;1275;22780;-83
2023/08/18 12:35:18;;;;;;;28.70;9.20;;;;;;;30.99;50.76;99041.75;137403;1275;22810;-83
2023/08/18 12:38:21;;;;;;;9.60;8.60;;;;;;;30.99;51.43;99041.02;137468;1255;22105;-82
2023/08/18 12:41:25;;;;;;;7.90;7.10;;;;;;;30.77;51.95;99041.48;137476;1275;22125;-81
2023/08/18 12:44:28;;;;;;;9.80;7.70;;;;;;;30.44;52.11;99039.70;137572;1274;22124;-81
2023/08/18 12:47:30;;;;;;;9.70;8.30;;;;;;;29.99;52.91;99030.02;137485;1275;21917;-81
2023/08/18 12:50:33;;;;;;;10.70;8.50;;;;;;;29.48;54.08;99028.23;137456;1275;22243;-82
2023/08/18 12:53:35;;;;;;;10.90;8.60;;;;;;;29.18;55.26;99027.77;137450;1275;22135;-80
2023/08/18 12:56:38;;;;;;;9.90;9.00;;;;;;;28.77;56.51;99020.72;137425;1275;22077;-80
2023/08/18 12:59:40;;;;;;;12.70;9.30;;;;;;;28.26;57.20;99024.38;137459;1274;22658;-81
2023/08/18 13:02:43;;;;;;;15.90;9.30;;;;;;;27.89;58.44;99040.57;137407;1274;22098;-82
2023/08/18 13:05:45;;;;;;;10.10;9.00;;;;;;;27.47;59.66;99053.38;137419;1274;22391;-82
2023/08/18 13:08:48;;;;;;;10.60;8.90;;;;;;;27.10;61.35;99065.71;137396;1274;22135;-80
2023/08/18 13:11:51;;;;;;;10.90;8.90;;;;;;;26.79;62.13;99077.07;137345;1274;22107;-83
2023/08/18 13:14:53;;;;;;;11.20;9.50;;;;;;;26.41;64.62;99099.30;137389;1275;22192;-81
2023/08/18 13:17:56;;;;;;;100.50;11.60;;;;;;;25.80;64.53;99101.64;137397;1274;22105;-83
2023/08/18 13:20:58;;;;;;;13.40;8.10;;;;;;;25.17;62.65;99105.29;137391;1274;22261;-83
2023/08/18 13:24:01;;;;;;;13.30;7.30;;;;;;;24.70;62.87;99109.73;137352;1274;22198;-82
2023/08/18 13:27:04;;;;;;;11.20;7.30;;;;;;;24.34;66.09;99118.47;137340;1275;22125;-83
2023/08/18 13:30:07;;;;;;;8.60;7.80;;;;;;;23.91;68.27;99113.34;137325;1275;23017;-86
2023/08/18 13:33:10;;;;;;;22.40;10.00;;;;;;;23.64;70.53;99107.45;137424;1274;22214;-86
2023/08/18 13:36:12;;;;;;;10.50;9.50;;;;;;;23.47;72.83;99101.96;137418;1275;22095;-83
2023/08/18 13:39:15;;;;;;;9.60;8.70;;;;;;;23.33;73.21;99098.89;137472;1275;22337;-84
2023/08/18 13:42:18;;;;;;;10.60;8.70;;;;;;;23.26;73.29;99093.48;137416;1274;22531;-86
2023/08/18 13:45:21;;;;;;;11.00;8.40;;;;;;;23.25;73.44;99082.14;137432;1271;22831;-86
2023/08/18 13:48:27;;;;;;;9.00;8.10;;;;;;;23.36;73.39;99070.77;137417;1275;22242;-85
2023/08/18 13:51:30;;;;;;;8.80;7.90;;;;;;;23.48;72.74;99057.02;137494;1275;22171;-86
2023/08/18 13:54:32;;;;;;;15.00;8.80;;;;;;;23.68;72.42;99057.73;137448;1274;22496;-86
2023/08/18 13:57:35;;;;;;;17.90;9.00;;;;;;;24.30;71.37;99062.77;137450;1275;22197;-86
2023/08/18 14:00:37;;;;;;;29.70;10.00;;;;;;;24.83;69.29;99059.88;137502;1274;22211;-84